sensor_id;sensor_type;location;lat;lon;timestamp;P1;durP1;ratioP1;P2;durP2;ratioP2
75297;SDS011;63896;45.990;18.688;2023-04-06T00:02:35;12.82;;;5.07;;
75297;SDS011;63896;45.990;18.688;2023-04-06T00:05:39;11.40;;;4.63;;
75297;SDS011;63896;45.990;18.688;2023-04-06T00:08:42;9.77;;;4.70;;
75297;SDS011;63896;45.990;18.688;2023-04-06T00:11:45;13.23;;;5.18;;
75297;SDS011;63896;45.990;18.688;2023-04-06T00:14:48;16.52;;;6.03;;
75297;SDS011;63896;45.990;18.688;2023-04-06T00:17:51;16.00;;;6.22;;
75297;SDS011;63896;45.990;18.688;2023-04-06T00:20:54;13.53;;;5.90;;
75297;SDS011;63896;45.990;18.688;2023-04-06T00:23:57;14.27;;;6.00;;
75297;SDS011;63896;45.990;18.688;2023-04-06T00:27:00;15.18;;;6.28;;
75297;SDS011;63896;45.990;18.688;2023-04-06T00:30:04;16.77;;;6.47;;
75297;SDS011;63896;45.990;18.688;2023-04-06T00:33:08;13.32;;;6.57;;
75297;SDS011;63896;45.990;18.688;2023-04-06T00:36:11;12.87;;;6.27;;
75297;SDS011;63896;45.990;18.688;2023-04-06T00:39:14;15.10;;;6.33;;
75297;SDS011;63896;45.990;18.688;2023-04-06T00:42:20;15.48;;;6.25;;
75297;SDS011;63896;45.990;18.688;2023-04-06T00:45:28;13.27;;;6.07;;
75297;SDS011;63896;45.990;18.688;2023-04-06T00:48:31;13.82;;;6.00;;
75297;SDS011;63896;45.990;18.688;2023-04-06T00:51:35;13.37;;;6.20;;
75297;SDS011;63896;45.990;18.688;2023-04-06T00:54:38;12.77;;;5.70;;
75297;SDS011;63896;45.990;18.688;2023-04-06T00:57:42;15.60;;;6.28;;
75297;SDS011;63896;45.990;18.688;2023-04-06T01:00:45;11.30;;;5.65;;
75297;SDS011;63896;45.990;18.688;2023-04-06T01:03:57;12.77;;;5.88;;
75297;SDS011;63896;45.990;18.688;2023-04-06T01:07:00;18.30;;;6.60;;
75297;SDS011;63896;45.990;18.688;2023-04-06T01:10:22;12.87;;;6.43;;
75297;SDS011;63896;45.990;18.688;2023-04-06T01:13:49;15.13;;;6.63;;
75297;SDS011;63896;45.990;18.688;2023-04-06T01:17:11;13.00;;;6.63;;
75297;SDS011;63896;45.990;18.688;2023-04-06T01:20:15;14.45;;;5.82;;
75297;SDS011;63896;45.990;18.688;2023-04-06T01:23:18;15.77;;;6.87;;
75297;SDS011;63896;45.990;18.688;2023-04-06T01:26:23;14.97;;;5.93;;
75297;SDS011;63896;45.990;18.688;2023-04-06T01:29:27;15.52;;;6.57;;
75297;SDS011;63896;45.990;18.688;2023-04-06T01:32:30;12.70;;;6.20;;
75297;SDS011;63896;45.990;18.688;2023-04-06T01:35:33;13.95;;;5.95;;
75297;SDS011;63896;45.990;18.688;2023-04-06T01:38:47;12.07;;;5.90;;
75297;SDS011;63896;45.990;18.688;2023-04-06T01:41:53;11.77;;;5.57;;
75297;SDS011;63896;45.990;18.688;2023-04-06T01:44:57;12.40;;;5.78;;
75297;SDS011;63896;45.990;18.688;2023-04-06T01:48:00;11.73;;;5.63;;
75297;SDS011;63896;45.990;18.688;2023-04-06T01:51:04;12.70;;;6.13;;
75297;SDS011;63896;45.990;18.688;2023-04-06T01:54:11;13.60;;;6.30;;
75297;SDS011;63896;45.990;18.688;2023-04-06T01:57:34;15.83;;;6.80;;
75297;SDS011;63896;45.990;18.688;2023-04-06T02:00:48;14.10;;;6.53;;
75297;SDS011;63896;45.990;18.688;2023-04-06T02:03:52;17.15;;;7.70;;
75297;SDS011;63896;45.990;18.688;2023-04-06T02:06:56;16.40;;;7.10;;
75297;SDS011;63896;45.990;18.688;2023-04-06T02:10:02;18.23;;;6.97;;
75297;SDS011;63896;45.990;18.688;2023-04-06T02:13:12;15.43;;;6.73;;
75297;SDS011;63896;45.990;18.688;2023-04-06T02:16:20;12.90;;;6.38;;
75297;SDS011;63896;45.990;18.688;2023-04-06T02:19:22;13.23;;;5.72;;
75297;SDS011;63896;45.990;18.688;2023-04-06T02:22:25;15.20;;;5.93;;
75297;SDS011;63896;45.990;18.688;2023-04-06T02:25:28;11.13;;;5.70;;
75297;SDS011;63896;45.990;18.688;2023-04-06T02:28:31;10.17;;;5.03;;
75297;SDS011;63896;45.990;18.688;2023-04-06T02:31:36;13.43;;;5.40;;
75297;SDS011;63896;45.990;18.688;2023-04-06T02:34:40;13.32;;;6.50;;
75297;SDS011;63896;45.990;18.688;2023-04-06T02:37:43;10.45;;;5.45;;
75297;SDS011;63896;45.990;18.688;2023-04-06T02:40:47;11.90;;;5.57;;
75297;SDS011;63896;45.990;18.688;2023-04-06T02:43:54;12.63;;;6.30;;
75297;SDS011;63896;45.990;18.688;2023-04-06T02:47:08;12.48;;;5.63;;
75297;SDS011;63896;45.990;18.688;2023-04-06T02:50:14;12.27;;;5.50;;
75297;SDS011;63896;45.990;18.688;2023-04-06T02:53:25;13.75;;;6.10;;
75297;SDS011;63896;45.990;18.688;2023-04-06T02:56:30;11.30;;;6.20;;
75297;SDS011;63896;45.990;18.688;2023-04-06T02:59:33;15.70;;;5.63;;
75297;SDS011;63896;45.990;18.688;2023-04-06T03:02:48;13.38;;;5.97;;
75297;SDS011;63896;45.990;18.688;2023-04-06T03:05:52;12.40;;;5.43;;
75297;SDS011;63896;45.990;18.688;2023-04-06T03:09:01;13.65;;;5.80;;
75297;SDS011;63896;45.990;18.688;2023-04-06T03:12:06;12.47;;;5.90;;
75297;SDS011;63896;45.990;18.688;2023-04-06T03:15:31;13.47;;;5.50;;
75297;SDS011;63896;45.990;18.688;2023-04-06T03:18:46;10.93;;;5.20;;
75297;SDS011;63896;45.990;18.688;2023-04-06T03:21:49;13.32;;;5.93;;
75297;SDS011;63896;45.990;18.688;2023-04-06T03:24:54;13.25;;;6.40;;
75297;SDS011;63896;45.990;18.688;2023-04-06T03:27:57;13.60;;;6.40;;
75297;SDS011;63896;45.990;18.688;2023-04-06T03:31:01;11.93;;;6.23;;
75297;SDS011;63896;45.990;18.688;2023-04-06T03:34:22;12.95;;;6.22;;
75297;SDS011;63896;45.990;18.688;2023-04-06T03:37:26;11.05;;;5.80;;
75297;SDS011;63896;45.990;18.688;2023-04-06T03:40:34;10.55;;;5.38;;
75297;SDS011;63896;45.990;18.688;2023-04-06T03:43:37;10.50;;;5.90;;
75297;SDS011;63896;45.990;18.688;2023-04-06T03:46:40;13.23;;;6.63;;
75297;SDS011;63896;45.990;18.688;2023-04-06T03:49:44;13.50;;;6.18;;
75297;SDS011;63896;45.990;18.688;2023-04-06T03:52:50;12.82;;;5.85;;
75297;SDS011;63896;45.990;18.688;2023-04-06T03:55:53;14.25;;;6.38;;
75297;SDS011;63896;45.990;18.688;2023-04-06T03:58:55;15.13;;;6.43;;
75297;SDS011;63896;45.990;18.688;2023-04-06T04:01:59;13.50;;;6.00;;
75297;SDS011;63896;45.990;18.688;2023-04-06T04:05:02;14.15;;;6.22;;
75297;SDS011;63896;45.990;18.688;2023-04-06T04:08:05;15.10;;;6.78;;
75297;SDS011;63896;45.990;18.688;2023-04-06T04:11:08;13.85;;;7.28;;
75297;SDS011;63896;45.990;18.688;2023-04-06T04:14:12;17.53;;;8.30;;
75297;SDS011;63896;45.990;18.688;2023-04-06T04:17:15;18.83;;;8.07;;
75297;SDS011;63896;45.990;18.688;2023-04-06T04:20:18;19.85;;;8.25;;
75297;SDS011;63896;45.990;18.688;2023-04-06T04:23:20;24.95;;;9.85;;
75297;SDS011;63896;45.990;18.688;2023-04-06T04:26:23;20.33;;;9.18;;
75297;SDS011;63896;45.990;18.688;2023-04-06T04:29:27;22.33;;;9.40;;
75297;SDS011;63896;45.990;18.688;2023-04-06T04:32:34;27.47;;;10.27;;
75297;SDS011;63896;45.990;18.688;2023-04-06T04:35:39;20.45;;;8.43;;
75297;SDS011;63896;45.990;18.688;2023-04-06T04:38:45;24.17;;;9.45;;
75297;SDS011;63896;45.990;18.688;2023-04-06T04:41:48;31.85;;;11.32;;
75297;SDS011;63896;45.990;18.688;2023-04-06T04:44:51;38.47;;;14.43;;
75297;SDS011;63896;45.990;18.688;2023-04-06T04:48:06;50.97;;;16.40;;
75297;SDS011;63896;45.990;18.688;2023-04-06T04:51:23;53.45;;;16.70;;
75297;SDS011;63896;45.990;18.688;2023-04-06T04:54:50;59.47;;;18.50;;
75297;SDS011;63896;45.990;18.688;2023-04-06T04:57:59;54.80;;;17.58;;
75297;SDS011;63896;45.990;18.688;2023-04-06T05:01:19;50.23;;;16.00;;
75297;SDS011;63896;45.990;18.688;2023-04-06T05:04:23;42.17;;;13.33;;
75297;SDS011;63896;45.990;18.688;2023-04-06T05:07:29;27.63;;;10.95;;
75297;SDS011;63896;45.990;18.688;2023-04-06T05:10:34;28.10;;;11.25;;
75297;SDS011;63896;45.990;18.688;2023-04-06T05:13:38;25.95;;;11.63;;
75297;SDS011;63896;45.990;18.688;2023-04-06T05:16:53;26.33;;;10.63;;
75297;SDS011;63896;45.990;18.688;2023-04-06T05:19:59;27.70;;;9.60;;
75297;SDS011;63896;45.990;18.688;2023-04-06T05:23:06;22.23;;;9.98;;
75297;SDS011;63896;45.990;18.688;2023-04-06T05:26:09;21.75;;;9.50;;
75297;SDS011;63896;45.990;18.688;2023-04-06T05:29:12;23.58;;;9.38;;
75297;SDS011;63896;45.990;18.688;2023-04-06T05:32:15;20.17;;;8.80;;
75297;SDS011;63896;45.990;18.688;2023-04-06T05:35:20;23.17;;;9.93;;
75297;SDS011;63896;45.990;18.688;2023-04-06T05:38:26;26.45;;;9.20;;
75297;SDS011;63896;45.990;18.688;2023-04-06T05:41:32;22.77;;;8.50;;
75297;SDS011;63896;45.990;18.688;2023-04-06T05:44:36;16.55;;;7.85;;
75297;SDS011;63896;45.990;18.688;2023-04-06T05:47:47;24.07;;;9.27;;
75297;SDS011;63896;45.990;18.688;2023-04-06T05:50:58;19.97;;;8.17;;
75297;SDS011;63896;45.990;18.688;2023-04-06T05:54:12;21.13;;;9.50;;
75297;SDS011;63896;45.990;18.688;2023-04-06T05:57:16;20.92;;;9.98;;
75297;SDS011;63896;45.990;18.688;2023-04-06T06:00:20;23.67;;;8.98;;
75297;SDS011;63896;45.990;18.688;2023-04-06T06:03:34;20.30;;;9.27;;
75297;SDS011;63896;45.990;18.688;2023-04-06T06:06:37;18.80;;;8.83;;
75297;SDS011;63896;45.990;18.688;2023-04-06T06:10:03;15.50;;;8.32;;
75297;SDS011;63896;45.990;18.688;2023-04-06T06:13:11;20.90;;;8.65;;
75297;SDS011;63896;45.990;18.688;2023-04-06T06:16:14;18.52;;;8.65;;
75297;SDS011;63896;45.990;18.688;2023-04-06T06:19:21;18.73;;;7.90;;
75297;SDS011;63896;45.990;18.688;2023-04-06T06:22:26;19.40;;;8.60;;
75297;SDS011;63896;45.990;18.688;2023-04-06T06:25:30;16.83;;;8.38;;
75297;SDS011;63896;45.990;18.688;2023-04-06T06:28:33;18.55;;;8.57;;
75297;SDS011;63896;45.990;18.688;2023-04-06T06:31:36;15.98;;;8.25;;
75297;SDS011;63896;45.990;18.688;2023-04-06T06:34:40;20.17;;;8.43;;
75297;SDS011;63896;45.990;18.688;2023-04-06T06:37:44;18.23;;;8.87;;
75297;SDS011;63896;45.990;18.688;2023-04-06T06:40:51;17.77;;;8.93;;
75297;SDS011;63896;45.990;18.688;2023-04-06T06:43:55;18.48;;;9.23;;
75297;SDS011;63896;45.990;18.688;2023-04-06T06:46:59;15.50;;;8.20;;
75297;SDS011;63896;45.990;18.688;2023-04-06T06:50:01;19.42;;;8.70;;
75297;SDS011;63896;45.990;18.688;2023-04-06T06:53:05;15.50;;;8.90;;
75297;SDS011;63896;45.990;18.688;2023-04-06T06:56:09;18.08;;;9.27;;
75297;SDS011;63896;45.990;18.688;2023-04-06T06:59:12;13.25;;;7.70;;
75297;SDS011;63896;45.990;18.688;2023-04-06T07:02:15;15.63;;;7.90;;
75297;SDS011;63896;45.990;18.688;2023-04-06T07:05:18;14.98;;;8.85;;
75297;SDS011;63896;45.990;18.688;2023-04-06T07:08:32;9.77;;;6.50;;
75297;SDS011;63896;45.990;18.688;2023-04-06T07:11:35;10.95;;;6.40;;
75297;SDS011;63896;45.990;18.688;2023-04-06T07:14:38;15.20;;;6.07;;
75297;SDS011;63896;45.990;18.688;2023-04-06T07:17:41;10.00;;;6.28;;
75297;SDS011;63896;45.990;18.688;2023-04-06T07:20:44;14.52;;;6.65;;
75297;SDS011;63896;45.990;18.688;2023-04-06T07:23:48;13.83;;;7.37;;
75297;SDS011;63896;45.990;18.688;2023-04-06T07:26:51;16.88;;;7.47;;
75297;SDS011;63896;45.990;18.688;2023-04-06T07:29:54;12.30;;;7.13;;
75297;SDS011;63896;45.990;18.688;2023-04-06T07:32:58;12.75;;;6.57;;
75297;SDS011;63896;45.990;18.688;2023-04-06T07:36:04;12.13;;;7.07;;
75297;SDS011;63896;45.990;18.688;2023-04-06T07:39:08;12.73;;;7.43;;
75297;SDS011;63896;45.990;18.688;2023-04-06T07:42:11;11.60;;;7.03;;
75297;SDS011;63896;45.990;18.688;2023-04-06T07:45:14;12.75;;;7.30;;
75297;SDS011;63896;45.990;18.688;2023-04-06T07:48:18;12.27;;;6.40;;
75297;SDS011;63896;45.990;18.688;2023-04-06T07:51:21;14.75;;;8.15;;
75297;SDS011;63896;45.990;18.688;2023-04-06T07:54:24;11.87;;;6.80;;
75297;SDS011;63896;45.990;18.688;2023-04-06T07:57:27;11.38;;;6.68;;
75297;SDS011;63896;45.990;18.688;2023-04-06T08:00:30;9.10;;;6.35;;
75297;SDS011;63896;45.990;18.688;2023-04-06T08:03:34;10.10;;;6.10;;
75297;SDS011;63896;45.990;18.688;2023-04-06T08:06:38;9.30;;;6.20;;
75297;SDS011;63896;45.990;18.688;2023-04-06T08:09:43;9.43;;;6.17;;
75297;SDS011;63896;45.990;18.688;2023-04-06T08:12:46;11.38;;;6.15;;
75297;SDS011;63896;45.990;18.688;2023-04-06T08:15:49;12.20;;;6.78;;
75297;SDS011;63896;45.990;18.688;2023-04-06T08:18:52;10.52;;;7.10;;
75297;SDS011;63896;45.990;18.688;2023-04-06T08:21:55;9.35;;;6.07;;
75297;SDS011;63896;45.990;18.688;2023-04-06T08:24:58;9.17;;;6.47;;
75297;SDS011;63896;45.990;18.688;2023-04-06T08:28:01;12.50;;;6.60;;
75297;SDS011;63896;45.990;18.688;2023-04-06T08:31:05;9.88;;;6.38;;
75297;SDS011;63896;45.990;18.688;2023-04-06T08:34:08;12.05;;;6.88;;
75297;SDS011;63896;45.990;18.688;2023-04-06T08:37:15;10.30;;;6.25;;
75297;SDS011;63896;45.990;18.688;2023-04-06T08:40:18;13.17;;;7.27;;
75297;SDS011;63896;45.990;18.688;2023-04-06T08:43:22;11.32;;;6.82;;
75297;SDS011;63896;45.990;18.688;2023-04-06T08:46:26;11.55;;;6.50;;
75297;SDS011;63896;45.990;18.688;2023-04-06T08:49:34;9.57;;;6.25;;
75297;SDS011;63896;45.990;18.688;2023-04-06T08:52:39;11.15;;;6.75;;
75297;SDS011;63896;45.990;18.688;2023-04-06T08:55:44;11.27;;;6.73;;
75297;SDS011;63896;45.990;18.688;2023-04-06T08:58:48;9.85;;;6.47;;
75297;SDS011;63896;45.990;18.688;2023-04-06T09:01:55;8.90;;;6.40;;
75297;SDS011;63896;45.990;18.688;2023-04-06T09:04:59;9.45;;;6.50;;
75297;SDS011;63896;45.990;18.688;2023-04-06T09:08:04;9.52;;;6.05;;
75297;SDS011;63896;45.990;18.688;2023-04-06T09:11:08;9.17;;;5.33;;
75297;SDS011;63896;45.990;18.688;2023-04-06T09:14:11;9.40;;;5.85;;
75297;SDS011;63896;45.990;18.688;2023-04-06T09:20:47;10.00;;;6.47;;
75297;SDS011;63896;45.990;18.688;2023-04-06T09:24:00;12.82;;;6.70;;
75297;SDS011;63896;45.990;18.688;2023-04-06T09:27:04;12.30;;;6.57;;
75297;SDS011;63896;45.990;18.688;2023-04-06T09:30:10;10.77;;;6.45;;
75297;SDS011;63896;45.990;18.688;2023-04-06T09:33:22;11.55;;;5.82;;
75297;SDS011;63896;45.990;18.688;2023-04-06T09:36:29;11.35;;;6.38;;
75297;SDS011;63896;45.990;18.688;2023-04-06T09:39:36;11.00;;;6.18;;
75297;SDS011;63896;45.990;18.688;2023-04-06T09:42:42;10.10;;;6.73;;
75297;SDS011;63896;45.990;18.688;2023-04-06T09:45:48;9.65;;;7.00;;
75297;SDS011;63896;45.990;18.688;2023-04-06T09:48:51;11.00;;;7.00;;
75297;SDS011;63896;45.990;18.688;2023-04-06T09:51:56;12.00;;;7.10;;
75297;SDS011;63896;45.990;18.688;2023-04-06T09:55:03;15.50;;;7.18;;
75297;SDS011;63896;45.990;18.688;2023-04-06T09:58:12;12.60;;;6.97;;
75297;SDS011;63896;45.990;18.688;2023-04-06T10:01:20;12.02;;;6.90;;
75297;SDS011;63896;45.990;18.688;2023-04-06T10:07:33;18.42;;;8.88;;
75297;SDS011;63896;45.990;18.688;2023-04-06T10:10:51;14.90;;;8.05;;
75297;SDS011;63896;45.990;18.688;2023-04-06T10:13:55;9.30;;;6.13;;
75297;SDS011;63896;45.990;18.688;2023-04-06T10:16:58;13.73;;;6.72;;
75297;SDS011;63896;45.990;18.688;2023-04-06T10:26:38;14.20;;;7.00;;
75297;SDS011;63896;45.990;18.688;2023-04-06T10:29:45;12.90;;;6.77;;
75297;SDS011;63896;45.990;18.688;2023-04-06T10:32:51;11.20;;;6.85;;
75297;SDS011;63896;45.990;18.688;2023-04-06T10:35:54;9.82;;;6.55;;
75297;SDS011;63896;45.990;18.688;2023-04-06T10:39:02;12.23;;;6.57;;
75297;SDS011;63896;45.990;18.688;2023-04-06T10:42:06;12.30;;;7.30;;
75297;SDS011;63896;45.990;18.688;2023-04-06T10:45:18;12.17;;;7.67;;
75297;SDS011;63896;45.990;18.688;2023-04-06T10:48:36;9.50;;;5.95;;
75297;SDS011;63896;45.990;18.688;2023-04-06T10:51:50;9.75;;;5.55;;
75297;SDS011;63896;45.990;18.688;2023-04-06T10:54:56;10.18;;;6.00;;
75297;SDS011;63896;45.990;18.688;2023-04-06T10:57:59;11.63;;;6.10;;
75297;SDS011;63896;45.990;18.688;2023-04-06T11:01:02;10.30;;;6.07;;
75297;SDS011;63896;45.990;18.688;2023-04-06T11:04:05;10.45;;;6.05;;
75297;SDS011;63896;45.990;18.688;2023-04-06T11:07:10;11.25;;;6.43;;
75297;SDS011;63896;45.990;18.688;2023-04-06T11:10:20;10.13;;;6.18;;
75297;SDS011;63896;45.990;18.688;2023-04-06T11:13:24;9.82;;;5.97;;
75297;SDS011;63896;45.990;18.688;2023-04-06T11:16:31;8.83;;;5.90;;
75297;SDS011;63896;45.990;18.688;2023-04-06T11:19:35;7.97;;;5.75;;
75297;SDS011;63896;45.990;18.688;2023-04-06T11:22:49;10.82;;;5.78;;
75297;SDS011;63896;45.990;18.688;2023-04-06T11:25:54;9.30;;;5.65;;
75297;SDS011;63896;45.990;18.688;2023-04-06T11:28:57;9.88;;;5.32;;
75297;SDS011;63896;45.990;18.688;2023-04-06T11:32:01;8.97;;;6.30;;
75297;SDS011;63896;45.990;18.688;2023-04-06T11:35:06;9.35;;;5.90;;
75297;SDS011;63896;45.990;18.688;2023-04-06T11:38:09;9.18;;;5.75;;
75297;SDS011;63896;45.990;18.688;2023-04-06T11:41:12;10.05;;;5.80;;
75297;SDS011;63896;45.990;18.688;2023-04-06T11:44:15;8.77;;;5.40;;
75297;SDS011;63896;45.990;18.688;2023-04-06T11:47:18;8.93;;;5.87;;
75297;SDS011;63896;45.990;18.688;2023-04-06T11:50:22;8.63;;;5.20;;
75297;SDS011;63896;45.990;18.688;2023-04-06T11:53:25;8.75;;;6.07;;
75297;SDS011;63896;45.990;18.688;2023-04-06T11:56:29;10.18;;;5.53;;
75297;SDS011;63896;45.990;18.688;2023-04-06T11:59:32;9.48;;;5.90;;
75297;SDS011;63896;45.990;18.688;2023-04-06T12:02:36;10.50;;;5.97;;
75297;SDS011;63896;45.990;18.688;2023-04-06T12:05:40;7.35;;;5.38;;
75297;SDS011;63896;45.990;18.688;2023-04-06T12:08:42;11.80;;;5.43;;
75297;SDS011;63896;45.990;18.688;2023-04-06T12:11:47;8.95;;;5.93;;
75297;SDS011;63896;45.990;18.688;2023-04-06T12:14:50;10.40;;;6.25;;
75297;SDS011;63896;45.990;18.688;2023-04-06T12:17:53;9.43;;;5.90;;
75297;SDS011;63896;45.990;18.688;2023-04-06T12:20:56;6.85;;;5.75;;
75297;SDS011;63896;45.990;18.688;2023-04-06T12:23:59;11.05;;;5.95;;
75297;SDS011;63896;45.990;18.688;2023-04-06T12:27:03;9.02;;;5.60;;
75297;SDS011;63896;45.990;18.688;2023-04-06T12:30:12;9.10;;;5.05;;
75297;SDS011;63896;45.990;18.688;2023-04-06T12:33:15;7.17;;;5.60;;
75297;SDS011;63896;45.990;18.688;2023-04-06T12:36:19;11.77;;;5.53;;
75297;SDS011;63896;45.990;18.688;2023-04-06T12:39:23;7.53;;;5.50;;
75297;SDS011;63896;45.990;18.688;2023-04-06T12:42:26;8.60;;;5.40;;
75297;SDS011;63896;45.990;18.688;2023-04-06T12:45:30;13.38;;;5.60;;
75297;SDS011;63896;45.990;18.688;2023-04-06T12:48:33;7.97;;;5.10;;
75297;SDS011;63896;45.990;18.688;2023-04-06T12:51:37;14.25;;;5.70;;
75297;SDS011;63896;45.990;18.688;2023-04-06T12:54:41;8.63;;;5.40;;
75297;SDS011;63896;45.990;18.688;2023-04-06T12:57:44;11.95;;;5.10;;
75297;SDS011;63896;45.990;18.688;2023-04-06T13:00:49;11.25;;;5.72;;
75297;SDS011;63896;45.990;18.688;2023-04-06T13:03:53;8.10;;;5.60;;
75297;SDS011;63896;45.990;18.688;2023-04-06T13:06:55;13.98;;;6.40;;
75297;SDS011;63896;45.990;18.688;2023-04-06T13:09:59;11.13;;;6.10;;
75297;SDS011;63896;45.990;18.688;2023-04-06T13:13:02;8.77;;;5.57;;
75297;SDS011;63896;45.990;18.688;2023-04-06T13:16:06;10.98;;;5.78;;
75297;SDS011;63896;45.990;18.688;2023-04-06T13:19:11;9.03;;;6.03;;
75297;SDS011;63896;45.990;18.688;2023-04-06T13:22:13;7.82;;;4.70;;
75297;SDS011;63896;45.990;18.688;2023-04-06T13:25:18;9.23;;;5.30;;
75297;SDS011;63896;45.990;18.688;2023-04-06T13:28:21;14.20;;;5.90;;
75297;SDS011;63896;45.990;18.688;2023-04-06T13:31:24;11.93;;;6.50;;
75297;SDS011;63896;45.990;18.688;2023-04-06T13:34:28;15.67;;;8.07;;
75297;SDS011;63896;45.990;18.688;2023-04-06T13:37:31;12.80;;;6.28;;
75297;SDS011;63896;45.990;18.688;2023-04-06T13:40:38;10.45;;;6.28;;
75297;SDS011;63896;45.990;18.688;2023-04-06T13:43:42;9.85;;;5.50;;
75297;SDS011;63896;45.990;18.688;2023-04-06T13:46:45;12.60;;;5.28;;
75297;SDS011;63896;45.990;18.688;2023-04-06T13:49:49;8.33;;;5.53;;
75297;SDS011;63896;45.990;18.688;2023-04-06T13:52:53;14.18;;;5.43;;
75297;SDS011;63896;45.990;18.688;2023-04-06T13:55:56;8.35;;;4.90;;
75297;SDS011;63896;45.990;18.688;2023-04-06T13:58:59;16.42;;;5.38;;
75297;SDS011;63896;45.990;18.688;2023-04-06T14:02:03;9.75;;;4.68;;
75297;SDS011;63896;45.990;18.688;2023-04-06T14:05:07;12.00;;;4.87;;
75297;SDS011;63896;45.990;18.688;2023-04-06T14:08:10;11.35;;;4.85;;
75297;SDS011;63896;45.990;18.688;2023-04-06T14:11:14;8.43;;;5.07;;
75297;SDS011;63896;45.990;18.688;2023-04-06T14:14:17;9.15;;;4.93;;
75297;SDS011;63896;45.990;18.688;2023-04-06T14:17:20;8.38;;;4.57;;
75297;SDS011;63896;45.990;18.688;2023-04-06T14:20:23;9.97;;;4.73;;
75297;SDS011;63896;45.990;18.688;2023-04-06T14:23:29;9.93;;;4.93;;
75297;SDS011;63896;45.990;18.688;2023-04-06T14:26:32;8.07;;;4.47;;
75297;SDS011;63896;45.990;18.688;2023-04-06T14:29:35;8.73;;;4.10;;
75297;SDS011;63896;45.990;18.688;2023-04-06T14:32:39;7.78;;;4.40;;
75297;SDS011;63896;45.990;18.688;2023-04-06T14:35:43;6.33;;;4.20;;
75297;SDS011;63896;45.990;18.688;2023-04-06T14:38:46;10.25;;;5.05;;
75297;SDS011;63896;45.990;18.688;2023-04-06T14:41:49;10.70;;;4.10;;
75297;SDS011;63896;45.990;18.688;2023-04-06T14:44:53;9.20;;;4.30;;
75297;SDS011;63896;45.990;18.688;2023-04-06T14:47:56;7.63;;;4.97;;
75297;SDS011;63896;45.990;18.688;2023-04-06T14:51:00;7.43;;;4.50;;
75297;SDS011;63896;45.990;18.688;2023-04-06T14:54:03;7.57;;;4.60;;
75297;SDS011;63896;45.990;18.688;2023-04-06T14:57:07;10.38;;;3.85;;
75297;SDS011;63896;45.990;18.688;2023-04-06T15:00:12;6.57;;;3.83;;
75297;SDS011;63896;45.990;18.688;2023-04-06T15:03:16;10.10;;;4.40;;
75297;SDS011;63896;45.990;18.688;2023-04-06T15:06:19;10.17;;;4.97;;
75297;SDS011;63896;45.990;18.688;2023-04-06T15:09:23;12.75;;;4.43;;
75297;SDS011;63896;45.990;18.688;2023-04-06T15:12:26;7.63;;;4.13;;
75297;SDS011;63896;45.990;18.688;2023-04-06T15:15:29;6.90;;;4.13;;
75297;SDS011;63896;45.990;18.688;2023-04-06T15:18:33;8.75;;;4.50;;
75297;SDS011;63896;45.990;18.688;2023-04-06T15:21:37;8.87;;;4.80;;
75297;SDS011;63896;45.990;18.688;2023-04-06T15:24:40;11.18;;;5.00;;
75297;SDS011;63896;45.990;18.688;2023-04-06T15:27:43;10.02;;;4.85;;
75297;SDS011;63896;45.990;18.688;2023-04-06T15:30:46;12.75;;;6.22;;
75297;SDS011;63896;45.990;18.688;2023-04-06T15:33:49;11.88;;;5.13;;
75297;SDS011;63896;45.990;18.688;2023-04-06T15:36:52;10.27;;;5.47;;
75297;SDS011;63896;45.990;18.688;2023-04-06T15:39:55;10.68;;;5.07;;
75297;SDS011;63896;45.990;18.688;2023-04-06T15:42:59;11.07;;;4.65;;
75297;SDS011;63896;45.990;18.688;2023-04-06T15:46:02;9.30;;;4.43;;
75297;SDS011;63896;45.990;18.688;2023-04-06T15:49:06;12.90;;;4.90;;
75297;SDS011;63896;45.990;18.688;2023-04-06T15:52:09;10.47;;;4.27;;
75297;SDS011;63896;45.990;18.688;2023-04-06T15:55:12;9.73;;;4.30;;
75297;SDS011;63896;45.990;18.688;2023-04-06T15:58:15;13.50;;;4.50;;
75297;SDS011;63896;45.990;18.688;2023-04-06T16:01:18;11.23;;;5.78;;
75297;SDS011;63896;45.990;18.688;2023-04-06T16:04:21;9.55;;;5.22;;
75297;SDS011;63896;45.990;18.688;2023-04-06T16:07:25;8.77;;;4.40;;
75297;SDS011;63896;45.990;18.688;2023-04-06T16:10:27;13.00;;;5.18;;
75297;SDS011;63896;45.990;18.688;2023-04-06T16:13:31;13.57;;;6.18;;
75297;SDS011;63896;45.990;18.688;2023-04-06T16:16:34;12.73;;;5.10;;
75297;SDS011;63896;45.990;18.688;2023-04-06T16:19:37;11.38;;;5.10;;
75297;SDS011;63896;45.990;18.688;2023-04-06T16:22:40;12.00;;;6.23;;
75297;SDS011;63896;45.990;18.688;2023-04-06T16:25:43;20.45;;;7.00;;
75297;SDS011;63896;45.990;18.688;2023-04-06T16:28:46;13.63;;;5.07;;
75297;SDS011;63896;45.990;18.688;2023-04-06T16:31:49;14.00;;;5.22;;
75297;SDS011;63896;45.990;18.688;2023-04-06T16:34:52;13.52;;;5.88;;
75297;SDS011;63896;45.990;18.688;2023-04-06T16:37:55;18.03;;;7.00;;
75297;SDS011;63896;45.990;18.688;2023-04-06T16:41:01;19.95;;;7.45;;
75297;SDS011;63896;45.990;18.688;2023-04-06T16:44:04;12.85;;;6.55;;
75297;SDS011;63896;45.990;18.688;2023-04-06T16:47:07;14.43;;;6.28;;
75297;SDS011;63896;45.990;18.688;2023-04-06T16:50:10;17.75;;;6.65;;
75297;SDS011;63896;45.990;18.688;2023-04-06T16:53:14;15.87;;;5.50;;
75297;SDS011;63896;45.990;18.688;2023-04-06T16:56:17;12.95;;;4.65;;
75297;SDS011;63896;45.990;18.688;2023-04-06T16:59:20;17.23;;;6.63;;
75297;SDS011;63896;45.990;18.688;2023-04-06T17:02:23;21.02;;;7.70;;
75297;SDS011;63896;45.990;18.688;2023-04-06T17:05:26;18.08;;;7.95;;
75297;SDS011;63896;45.990;18.688;2023-04-06T17:08:29;20.53;;;7.67;;
75297;SDS011;63896;45.990;18.688;2023-04-06T17:11:32;18.48;;;7.45;;
75297;SDS011;63896;45.990;18.688;2023-04-06T17:14:47;22.00;;;7.65;;
75297;SDS011;63896;45.990;18.688;2023-04-06T17:17:50;13.30;;;6.55;;
75297;SDS011;63896;45.990;18.688;2023-04-06T17:20:53;17.98;;;7.80;;
75297;SDS011;63896;45.990;18.688;2023-04-06T17:23:56;16.07;;;7.57;;
75297;SDS011;63896;45.990;18.688;2023-04-06T17:26:59;16.08;;;7.40;;
75297;SDS011;63896;45.990;18.688;2023-04-06T17:30:04;24.85;;;8.20;;
75297;SDS011;63896;45.990;18.688;2023-04-06T17:33:08;17.98;;;7.78;;
75297;SDS011;63896;45.990;18.688;2023-04-06T17:36:11;18.88;;;8.15;;
75297;SDS011;63896;45.990;18.688;2023-04-06T17:39:14;17.77;;;7.53;;
75297;SDS011;63896;45.990;18.688;2023-04-06T17:42:17;16.15;;;8.32;;
75297;SDS011;63896;45.990;18.688;2023-04-06T17:45:20;19.35;;;8.02;;
75297;SDS011;63896;45.990;18.688;2023-04-06T17:48:23;25.63;;;9.32;;
75297;SDS011;63896;45.990;18.688;2023-04-06T17:51:26;26.23;;;9.95;;
75297;SDS011;63896;45.990;18.688;2023-04-06T17:54:29;16.97;;;9.37;;
75297;SDS011;63896;45.990;18.688;2023-04-06T17:57:32;19.58;;;8.95;;
75297;SDS011;63896;45.990;18.688;2023-04-06T18:00:35;21.17;;;9.02;;
75297;SDS011;63896;45.990;18.688;2023-04-06T18:03:38;19.13;;;8.75;;
75297;SDS011;63896;45.990;18.688;2023-04-06T18:06:41;24.02;;;10.00;;
75297;SDS011;63896;45.990;18.688;2023-04-06T18:09:44;30.27;;;12.13;;
75297;SDS011;63896;45.990;18.688;2023-04-06T18:12:47;26.27;;;10.00;;
75297;SDS011;63896;45.990;18.688;2023-04-06T18:15:50;29.77;;;13.00;;
75297;SDS011;63896;45.990;18.688;2023-04-06T18:18:55;32.17;;;13.27;;